createdAt,value
2018-02-06T00:01:36.457Z,75.16
2018-02-06T00:04:03.930Z,74.95
2018-02-06T00:06:31.392Z,75.06
2018-02-06T00:08:58.806Z,75.76
2018-02-06T00:11:26.221Z,75.84
2018-02-06T00:13:53.641Z,76.15
2018-02-06T00:16:21.061Z,75.94
2018-02-06T00:18:48.481Z,75.89
2018-02-06T00:21:15.909Z,76.02
2018-02-06T00:23:43.325Z,75.80
2018-02-06T00:26:10.750Z,75.74
2018-02-06T00:28:38.165Z,75.67
2018-02-06T00:31:05.581Z,75.88
2018-02-06T00:33:33.010Z,76.08
2018-02-06T00:36:00.429Z,76.11
2018-02-06T00:38:27.845Z,75.86
2018-02-06T00:40:55.279Z,75.71
2018-02-06T00:43:22.701Z,75.58
2018-02-06T00:45:50.125Z,75.45
2018-02-06T00:48:17.542Z,75.83
2018-02-06T00:50:44.957Z,76.30
2018-02-06T00:53:12.378Z,76.21
2018-02-06T00:55:39.793Z,76.25
2018-02-06T00:58:07.224Z,76.16
2018-02-06T01:00:34.634Z,76.01
2018-02-06T01:03:02.049Z,76.05
2018-02-06T01:05:29.469Z,75.80
2018-02-06T01:07:56.910Z,76.08
2018-02-06T01:10:24.333Z,75.84
2018-02-06T01:12:51.753Z,76.10
2018-02-06T01:15:19.170Z,76.26
2018-02-06T01:17:46.601Z,75.80
2018-02-06T01:20:14.019Z,75.50
2018-02-06T01:22:41.433Z,75.62
2018-02-06T01:25:08.855Z,75.54
2018-02-06T01:27:36.274Z,75.97
2018-02-06T01:30:03.685Z,75.66
2018-02-06T01:32:31.106Z,75.35
2018-02-06T01:34:58.526Z,75.77
2018-02-06T01:37:25.941Z,75.80
2018-02-06T01:39:53.372Z,76.67
2018-02-06T01:42:20.785Z,76.04
2018-02-06T01:44:48.221Z,76.07
2018-02-06T01:47:15.642Z,75.94
2018-02-06T01:49:49.541Z,75.79
2018-02-06T01:52:16.968Z,75.98
2018-02-06T01:54:44.398Z,76.19
2018-02-06T01:57:11.825Z,75.86
2018-02-06T01:59:39.241Z,76.23
2018-02-06T02:02:06.661Z,76.06
2018-02-06T02:04:34.085Z,75.64
2018-02-06T02:07:01.502Z,76.05
2018-02-06T02:09:28.997Z,75.77
2018-02-06T02:11:56.419Z,75.78
2018-02-06T02:14:23.846Z,76.06
2018-02-06T02:16:51.262Z,75.53
2018-02-06T02:19:18.679Z,75.59
2018-02-06T02:21:46.231Z,75.33
2018-02-06T02:24:13.650Z,75.21
2018-02-06T02:26:41.066Z,75.34
2018-02-06T02:29:08.494Z,75.72
2018-02-06T02:31:35.909Z,75.13
2018-02-06T02:34:03.316Z,75.70
2018-02-06T02:36:30.758Z,75.74
2018-02-06T02:38:58.177Z,76.13
2018-02-06T02:41:25.588Z,76.00
2018-02-06T04:39:21.767Z,74.01
2018-02-06T04:41:49.197Z,73.55
2018-02-06T04:44:16.616Z,72.47
2018-02-06T04:46:44.032Z,72.44
2018-02-06T04:49:11.478Z,72.59
2018-02-06T04:51:38.897Z,72.74
2018-02-06T04:54:06.313Z,73.30
2018-02-06T04:56:33.739Z,72.94
2018-02-06T04:59:01.161Z,73.47
2018-02-06T05:01:28.576Z,72.18
2018-02-06T05:03:56.002Z,72.44
2018-02-06T05:06:23.664Z,73.18
2018-02-06T05:08:51.080Z,72.37
2018-02-06T05:11:18.509Z,72.17
2018-02-06T05:13:45.933Z,72.54
2018-02-06T05:16:13.336Z,73.14
2018-02-06T05:18:40.770Z,72.76
2018-02-06T05:21:08.181Z,72.78
2018-02-06T05:23:35.594Z,72.86
2018-02-06T05:26:03.020Z,73.02
2018-02-06T05:28:30.437Z,73.17
2018-02-06T05:30:57.855Z,73.20
2018-02-06T05:33:25.288Z,73.21
2018-02-06T05:35:52.700Z,73.45
2018-02-06T05:38:20.121Z,72.57
2018-02-06T05:40:47.549Z,73.13
2018-02-06T05:43:14.974Z,73.13
2018-02-06T05:45:42.437Z,73.12
2018-02-06T05:48:09.838Z,72.39
2018-02-06T05:50:37.270Z,72.44
2018-02-06T05:53:04.691Z,72.62
2018-02-06T05:55:32.125Z,72.69
2018-02-06T05:57:59.529Z,72.98
2018-02-06T06:00:26.940Z,72.23
2018-02-06T06:02:54.428Z,72.60
2018-02-06T06:05:21.894Z,72.55
2018-02-06T06:07:49.289Z,72.81
2018-02-06T06:10:16.709Z,72.75
2018-02-06T06:12:44.121Z,72.75
2018-02-06T06:15:11.548Z,72.93
2018-02-06T06:17:38.965Z,72.36
2018-02-06T06:20:06.396Z,72.90
2018-02-06T06:22:33.833Z,72.48
2018-02-06T06:25:01.261Z,72.53
2018-02-06T06:27:28.713Z,72.63
2018-02-06T06:29:59.369Z,72.25
2018-02-06T06:32:26.797Z,72.59
2018-02-06T06:34:54.206Z,72.05
2018-02-06T06:37:21.633Z,71.51
2018-02-06T06:39:49.070Z,71.82
2018-02-06T06:42:16.526Z,72.32
2018-02-06T06:44:43.928Z,72.81
2018-02-06T06:47:11.361Z,72.91
2018-02-06T06:49:38.772Z,72.59
2018-02-06T06:52:06.196Z,72.67
2018-02-06T06:54:33.668Z,73.05
2018-02-06T06:57:01.165Z,72.61
2018-02-06T06:59:28.528Z,73.00
2018-02-06T07:01:56.508Z,73.05
2018-02-06T07:04:23.949Z,73.37
2018-02-06T07:06:51.428Z,73.60
2018-02-06T07:09:18.841Z,73.87
2018-02-06T07:11:46.270Z,73.84
2018-02-06T07:14:13.690Z,73.41
2018-02-06T07:16:41.115Z,73.42
2018-02-06T07:19:08.536Z,73.50
2018-02-06T07:21:35.941Z,73.11
2018-02-06T07:24:03.366Z,72.90
2018-02-06T07:26:30.772Z,73.65
2018-02-06T07:28:58.184Z,73.47
2018-02-06T07:31:25.604Z,73.14
2018-02-06T07:33:53.013Z,73.17
2018-02-06T07:36:20.421Z,72.80
2018-02-06T07:38:47.853Z,73.05
2018-02-06T07:41:15.264Z,72.74
2018-02-06T07:43:42.669Z,72.63
2018-02-06T07:46:10.096Z,72.82
2018-02-06T07:48:37.509Z,72.94
2018-02-06T07:51:04.926Z,72.24
2018-02-06T07:53:32.348Z,72.27
2018-02-06T07:55:59.764Z,72.16
2018-02-06T07:58:27.172Z,71.93
2018-02-06T08:00:54.596Z,71.71
2018-02-06T08:03:22.010Z,72.00
2018-02-06T08:05:49.420Z,70.69
2018-02-06T08:08:16.848Z,70.65
2018-02-06T08:10:44.252Z,70.77
2018-02-06T08:13:12.522Z,70.58
2018-02-06T08:15:39.937Z,70.58
2018-02-06T08:18:07.378Z,70.41
2018-02-06T08:20:34.808Z,70.36
2018-02-06T08:23:02.248Z,70.17
2018-02-06T08:25:29.666Z,70.31
2018-02-06T08:27:57.084Z,70.64
2018-02-06T08:30:24.531Z,69.81
2018-02-06T08:32:51.953Z,69.95
2018-02-06T08:35:19.379Z,70.28
2018-02-06T08:37:46.801Z,70.30
2018-02-06T08:40:14.234Z,69.64
2018-02-06T08:42:41.652Z,69.49
2018-02-06T08:45:09.083Z,68.93
2018-02-06T08:47:36.489Z,69.34
2018-02-06T08:50:03.905Z,69.04
2018-02-06T08:52:31.340Z,69.47
2018-02-06T08:54:58.753Z,69.33
2018-02-06T08:57:26.168Z,68.45
2018-02-06T08:59:53.600Z,69.00
2018-02-06T09:02:21.017Z,68.84
2018-02-06T09:04:48.441Z,68.37
2018-02-06T09:07:15.870Z,68.36
2018-02-06T09:09:43.285Z,68.90
2018-02-06T09:12:10.703Z,68.58
2018-02-06T09:14:38.132Z,69.33
2018-02-06T09:17:05.551Z,68.52
2018-02-06T09:19:32.973Z,69.16
2018-02-06T09:22:00.398Z,69.88
2018-02-06T09:24:27.814Z,68.16
2018-02-06T09:26:55.225Z,67.17
2018-02-06T09:29:22.655Z,67.38
2018-02-06T09:31:50.068Z,67.01
2018-02-06T09:34:17.480Z,65.65
2018-02-06T09:36:44.913Z,63.59
2018-02-06T09:39:12.333Z,62.58
2018-02-06T09:41:39.742Z,63.21
2018-02-06T09:44:07.176Z,62.37
2018-02-06T09:46:34.593Z,62.72
2018-02-06T09:49:02.016Z,63.46
2018-02-06T09:51:29.449Z,63.03
2018-02-06T09:53:56.870Z,63.82
2018-02-06T09:56:24.276Z,64.12
2018-02-06T09:58:51.718Z,63.61
2018-02-06T10:01:19.132Z,63.11
2018-02-06T10:03:46.549Z,63.34
2018-02-06T10:06:13.981Z,64.43
2018-02-06T10:08:41.398Z,63.11
2018-02-06T10:11:08.809Z,64.44
2018-02-06T10:13:36.238Z,64.42
2018-02-06T10:16:03.661Z,63.30
2018-02-06T10:18:31.100Z,64.29
2018-02-06T10:20:58.528Z,62.90
2018-02-06T10:23:25.948Z,64.24
2018-02-06T10:25:53.364Z,63.93
2018-02-06T10:28:20.793Z,63.57
2018-02-06T10:30:48.204Z,63.96
2018-02-06T10:33:15.628Z,63.64
2018-02-06T10:35:43.064Z,64.29
2018-02-06T10:38:10.481Z,64.29
2018-02-06T10:40:37.898Z,64.21
2018-02-06T10:43:05.327Z,63.28
2018-02-06T10:45:32.737Z,63.35
2018-02-06T10:48:00.152Z,64.40
2018-02-06T10:50:27.585Z,65.10
2018-02-06T10:52:54.986Z,64.71
2018-02-06T10:55:22.396Z,64.23
2018-02-06T10:57:49.833Z,63.80
2018-02-06T11:00:17.239Z,64.56
2018-02-06T11:02:44.658Z,63.90
2018-02-06T11:05:12.092Z,64.49
2018-02-06T11:07:39.508Z,64.63
2018-02-06T11:10:06.924Z,65.76
2018-02-06T11:12:34.357Z,64.83
2018-02-06T11:15:01.765Z,63.65
2018-02-06T11:17:29.184Z,64.04
2018-02-06T11:19:56.621Z,63.96
2018-02-06T11:22:24.034Z,63.51
2018-02-06T11:24:51.454Z,63.48
2018-02-06T11:27:18.880Z,63.70
2018-02-06T11:29:46.300Z,63.82
2018-02-06T11:32:13.699Z,63.15
2018-02-06T11:34:41.123Z,64.14
2018-02-06T11:37:08.528Z,63.38
2018-02-06T11:39:35.944Z,64.33
2018-02-06T11:42:03.373Z,66.01
2018-02-06T11:44:30.799Z,64.80
2018-02-06T11:46:58.217Z,63.51
2018-02-06T11:49:25.633Z,64.82
2018-02-06T11:51:53.069Z,64.48
2018-02-06T11:54:20.495Z,64.27
2018-02-06T11:56:47.953Z,64.28
2018-02-06T11:59:15.369Z,64.18
2018-02-06T12:01:42.791Z,65.09
2018-02-06T12:04:10.224Z,64.75
2018-02-06T12:06:37.643Z,64.13
2018-02-06T12:09:05.057Z,63.16
2018-02-06T12:11:32.516Z,64.49
2018-02-06T12:13:59.920Z,64.05
2018-02-06T12:16:27.330Z,64.04
2018-02-06T12:18:54.760Z,62.20
2018-02-06T12:21:22.208Z,62.52
2018-02-06T12:23:49.627Z,62.82
2018-02-06T12:26:17.053Z,63.50
2018-02-06T12:28:44.481Z,63.34
2018-02-06T12:31:11.905Z,63.41
2018-02-06T12:33:46.327Z,64.00
2018-02-06T12:36:13.744Z,64.10
2018-02-06T12:38:41.156Z,63.84
2018-02-06T12:41:08.588Z,63.61
2018-02-06T12:43:36.009Z,62.69
2018-02-06T12:46:03.424Z,62.23
2018-02-06T12:48:30.858Z,61.62
2018-02-06T12:50:58.269Z,61.29
2018-02-06T12:53:25.682Z,61.53
2018-02-06T12:55:53.112Z,62.09
2018-02-06T12:58:20.533Z,61.78
2018-02-06T13:00:47.944Z,62.46
2018-02-06T13:03:15.374Z,62.79
2018-02-06T13:05:42.771Z,61.91
2018-02-06T13:08:10.176Z,62.80
2018-02-06T13:10:37.604Z,62.55
2018-02-06T13:13:05.144Z,63.02
2018-02-06T13:15:32.573Z,63.07
2018-02-06T13:18:00.085Z,62.54
2018-02-06T13:20:27.495Z,62.67
2018-02-06T13:22:54.965Z,63.30
2018-02-06T13:25:22.399Z,63.00
2018-02-06T13:27:49.825Z,62.73
2018-02-06T13:30:17.283Z,63.24
2018-02-06T13:32:44.720Z,63.42
2018-02-06T13:35:12.133Z,62.38
2018-02-06T13:37:39.541Z,63.80
2018-02-06T13:40:08.012Z,65.15
2018-02-06T13:42:35.416Z,64.34
2018-02-06T13:45:02.824Z,65.02
2018-02-06T13:47:30.265Z,66.33
2018-02-06T13:49:57.712Z,66.67
2018-02-06T13:52:26.112Z,66.62
2018-02-06T13:54:53.885Z,66.47
2018-02-06T13:57:21.328Z,66.46
2018-02-06T13:59:48.755Z,67.14
2018-02-06T14:02:16.196Z,67.50
2018-02-06T14:04:43.973Z,67.99
2018-02-06T14:07:11.482Z,69.23
2018-02-06T14:09:38.896Z,69.51
2018-02-06T14:12:06.368Z,70.74
2018-02-06T14:14:33.785Z,70.88
2018-02-06T14:17:01.203Z,70.06
2018-02-06T14:19:28.624Z,71.58
2018-02-06T14:21:56.135Z,72.43
2018-02-06T14:24:23.560Z,72.15
2018-02-06T14:26:50.972Z,71.53
2018-02-06T14:29:18.396Z,72.88
2018-02-06T14:31:45.824Z,73.69
2018-02-06T14:34:13.281Z,73.78
2018-02-06T14:36:40.704Z,73.30
2018-02-06T14:39:08.136Z,73.46
2018-02-06T14:41:35.596Z,74.05
2018-02-06T14:44:03.017Z,74.89
2018-02-06T14:46:30.454Z,75.52
2018-02-06T14:48:57.876Z,75.31
2018-02-06T14:51:25.272Z,75.39
2018-02-06T14:53:52.716Z,74.45
2018-02-06T14:56:20.128Z,75.37
2018-02-06T14:58:47.544Z,76.78
2018-02-06T15:01:14.988Z,76.64
2018-02-06T15:03:42.424Z,76.46
2018-02-06T15:06:09.840Z,76.82
2018-02-06T15:08:37.301Z,76.87
2018-02-06T15:11:04.713Z,76.79
2018-02-06T15:13:32.121Z,77.70
2018-02-06T15:15:59.564Z,77.87
2018-02-06T15:18:26.980Z,78.91
2018-02-06T15:20:54.397Z,79.88
2018-02-06T15:23:21.856Z,80.83
2018-02-06T15:25:49.269Z,81.84
2018-02-06T15:28:16.693Z,82.11
2018-02-06T15:30:44.115Z,82.49
2018-02-06T15:33:11.528Z,82.92
2018-02-06T15:35:38.943Z,83.29
2018-02-06T15:38:06.378Z,84.17
2018-02-06T15:40:33.785Z,84.32
2018-02-06T15:43:01.193Z,84.21
2018-02-06T15:45:28.632Z,84.27
2018-02-06T15:47:56.041Z,84.57
2018-02-06T15:50:23.473Z,85.26
2018-02-06T15:52:50.907Z,86.01
2018-02-06T15:55:18.316Z,86.50
2018-02-06T15:57:45.729Z,86.69
2018-02-06T16:00:13.160Z,86.74
2018-02-06T16:02:40.573Z,86.75
2018-02-06T16:05:07.984Z,87.01
2018-02-06T16:07:35.433Z,87.00
2018-02-06T16:10:02.905Z,86.95
2018-02-06T16:12:30.354Z,87.35
2018-02-06T16:14:58.480Z,87.56
2018-02-06T16:17:25.917Z,87.54
2018-02-06T16:19:55.308Z,87.65
2018-02-06T16:22:22.744Z,87.85
2018-02-06T16:24:50.156Z,88.61
2018-02-06T16:27:17.578Z,88.49
2018-02-06T16:29:46.209Z,88.68
2018-02-06T16:32:13.621Z,89.17
2018-02-06T16:34:41.074Z,89.20
2018-02-06T16:37:08.704Z,89.54
2018-02-06T16:39:36.132Z,89.63
2018-02-06T16:42:03.565Z,89.67
2018-02-06T16:44:30.989Z,89.88
2018-02-06T16:46:58.402Z,89.68
2018-02-06T16:49:25.820Z,89.88
2018-02-06T16:51:53.300Z,90.44
2018-02-06T16:54:20.823Z,90.67
2018-02-06T16:56:48.196Z,90.27
2018-02-06T16:59:15.643Z,90.10
2018-02-06T17:01:43.049Z,89.91
2018-02-06T17:04:10.461Z,90.35
2018-02-06T17:06:37.888Z,90.59
2018-02-06T17:09:05.301Z,90.81
2018-02-06T17:11:32.721Z,91.24
2018-02-06T17:14:00.173Z,91.49
2018-02-06T17:16:27.612Z,91.48
2018-02-06T17:18:55.017Z,90.96
2018-02-06T17:21:22.449Z,90.56
2018-02-06T17:23:49.870Z,90.12
2018-02-06T17:26:17.276Z,90.42
2018-02-06T17:28:44.708Z,90.48
2018-02-06T17:31:12.125Z,90.29
2018-02-06T17:33:39.601Z,90.60
2018-02-06T17:36:07.055Z,90.59
2018-02-06T17:38:34.469Z,90.32
2018-02-06T17:41:01.918Z,90.10
2018-02-06T17:43:29.517Z,89.76
2018-02-06T17:45:56.929Z,89.34
2018-02-06T17:48:24.340Z,89.43
2018-02-06T17:50:51.780Z,89.35
2018-02-06T17:53:19.189Z,89.68
2018-02-06T17:55:46.606Z,89.95
2018-02-06T17:58:14.149Z,89.93
2018-02-06T18:00:41.553Z,89.84
2018-02-06T18:03:08.961Z,89.59
2018-02-06T18:05:37.527Z,89.47
2018-02-06T18:08:04.945Z,89.52
2018-02-06T18:10:32.393Z,89.46
2018-02-06T18:12:59.804Z,89.69
2018-02-06T18:15:27.218Z,89.64
2018-02-06T18:17:54.629Z,89.92
2018-02-06T18:20:22.108Z,89.74
2018-02-06T18:22:53.860Z,89.80
2018-02-06T18:25:21.317Z,89.42
2018-02-06T18:27:48.744Z,89.64
2018-02-06T18:30:16.153Z,89.83
2018-02-06T18:32:43.573Z,89.83
2018-02-06T18:35:10.977Z,89.66
2018-02-06T18:37:38.396Z,89.77
2018-02-06T18:40:05.829Z,89.84
2018-02-06T18:42:33.240Z,89.99
2018-02-06T18:45:00.690Z,90.32
2018-02-06T18:47:28.169Z,90.58
2018-02-06T18:49:55.577Z,90.35
2018-02-06T18:52:22.996Z,90.41
2018-02-06T18:54:50.561Z,90.45
2018-02-06T18:57:18.028Z,90.86
2018-02-06T18:59:46.217Z,91.01
2018-02-06T19:02:14.728Z,91.20
2018-02-06T19:04:42.200Z,91.51
2018-02-06T19:07:10.219Z,91.49
2018-02-06T19:09:38.278Z,91.38
2018-02-06T19:12:06.653Z,91.50
2018-02-06T19:14:34.145Z,91.61
2018-02-06T19:17:01.631Z,91.55
2018-02-06T19:19:29.054Z,91.66
2018-02-06T19:21:57.420Z,91.74
2018-02-06T19:24:24.900Z,91.96
2018-02-06T19:26:52.377Z,91.83
2018-02-06T19:29:19.789Z,92.06
2018-02-06T19:31:47.238Z,92.41
2018-02-06T19:34:15.543Z,92.67
2018-02-06T19:36:44.122Z,92.58
2018-02-06T19:39:12.305Z,92.94
2018-02-06T19:41:40.565Z,93.06
2018-02-06T19:44:07.984Z,93.17
2018-02-06T19:46:35.417Z,93.54
2018-02-06T19:49:02.904Z,93.85
2018-02-06T19:51:30.312Z,93.70
2018-02-06T19:53:57.741Z,93.59
2018-02-06T19:56:25.160Z,93.68
2018-02-06T19:58:52.576Z,93.54
2018-02-06T20:01:20.073Z,93.53
2018-02-06T20:03:47.485Z,93.52
2018-02-06T20:06:14.899Z,93.40
2018-02-06T20:08:42.336Z,93.29
2018-02-06T20:11:09.772Z,93.42
2018-02-06T20:13:38.257Z,92.97
2018-02-06T20:16:05.732Z,93.35
2018-02-06T20:18:33.172Z,93.60
2018-02-06T20:21:00.572Z,93.65
2018-02-06T20:23:28.000Z,93.68
2018-02-06T20:25:55.421Z,93.86
2018-02-06T20:28:22.838Z,93.87
2018-02-06T20:30:50.264Z,94.01
2018-02-06T20:33:17.689Z,94.03
2018-02-06T20:35:45.101Z,94.19
2018-02-06T20:38:12.537Z,94.27
2018-02-06T20:40:39.952Z,94.52
2018-02-06T20:43:07.360Z,94.46
2018-02-06T20:45:34.798Z,94.50
2018-02-06T20:48:02.202Z,94.42
2018-02-06T20:50:29.616Z,94.03
2018-02-06T20:52:57.060Z,94.13
2018-02-06T20:55:24.520Z,93.46
2018-02-06T20:57:51.877Z,93.16
2018-02-06T21:00:19.330Z,92.92
2018-02-06T21:02:46.744Z,92.60
2018-02-06T21:05:14.161Z,92.51
2018-02-06T21:07:41.601Z,92.51
2018-02-06T21:10:09.066Z,92.51
2018-02-06T21:12:36.473Z,92.94
2018-02-06T21:15:04.254Z,92.91
2018-02-06T21:17:31.680Z,92.84
2018-02-06T21:19:59.096Z,92.57
2018-02-06T21:22:26.528Z,92.13
2018-02-06T21:24:53.951Z,91.95
2018-02-06T21:27:21.363Z,91.79
2018-02-06T21:29:48.797Z,91.79
2018-02-06T21:32:16.226Z,91.77
2018-02-06T21:34:43.649Z,92.07
2018-02-06T21:37:11.105Z,92.05
2018-02-06T21:39:38.525Z,92.08
2018-02-06T21:42:05.945Z,92.58
2018-02-06T21:44:33.384Z,92.76
2018-02-06T21:47:00.784Z,92.69
2018-02-06T21:49:28.197Z,92.82
2018-02-06T21:51:55.637Z,92.61
2018-02-06T21:54:23.048Z,92.25
2018-02-06T21:56:50.531Z,92.52
2018-02-06T21:59:17.960Z,92.66
2018-02-06T22:01:45.422Z,92.60
2018-02-06T22:04:12.857Z,92.80
2018-02-06T22:06:41.116Z,92.87
2018-02-06T22:09:08.532Z,93.07
2018-02-06T22:11:35.949Z,93.23
2018-02-06T22:14:03.373Z,93.52
2018-02-06T22:16:30.784Z,93.50
2018-02-06T22:18:58.196Z,93.35
2018-02-06T22:21:25.636Z,93.18
2018-02-06T22:23:53.061Z,93.35
2018-02-06T22:26:20.481Z,93.39
2018-02-06T22:28:47.905Z,93.58
2018-02-06T22:31:15.321Z,93.51
2018-02-06T22:33:42.736Z,93.48
2018-02-06T22:36:10.160Z,93.63
2018-02-06T22:38:37.576Z,93.38
2018-02-06T22:41:04.992Z,93.04
2018-02-06T22:43:32.425Z,93.24
2018-02-06T22:45:59.845Z,93.30
2018-02-06T22:48:27.256Z,93.06
2018-02-06T22:50:54.693Z,92.98
2018-02-06T22:53:22.114Z,93.33
2018-02-06T22:55:49.520Z,93.55
2018-02-06T22:58:16.944Z,93.67
2018-02-06T23:00:44.353Z,93.85
2018-02-06T23:03:11.767Z,93.56
2018-02-06T23:05:39.196Z,93.69
2018-02-06T23:08:06.609Z,93.97
2018-02-06T23:10:34.022Z,93.69
2018-02-06T23:13:01.449Z,93.48
2018-02-06T23:15:28.873Z,93.44
2018-02-06T23:17:56.326Z,93.61
2018-02-06T23:20:23.744Z,93.49
2018-02-06T23:22:51.149Z,93.47
2018-02-06T23:25:18.611Z,93.74
2018-02-06T23:27:46.069Z,92.96
2018-02-06T23:30:13.516Z,92.74
2018-02-06T23:32:40.933Z,92.86
2018-02-06T23:35:08.361Z,92.84
2018-02-06T23:37:35.818Z,92.53
2018-02-06T23:40:03.236Z,92.48
2018-02-06T23:42:30.665Z,92.63
2018-02-06T23:44:58.124Z,92.84
2018-02-06T23:47:25.544Z,92.65
2018-02-06T23:49:52.991Z,92.38
2018-02-06T23:52:20.396Z,92.15
2018-02-06T23:54:48.240Z,91.94
2018-02-06T23:57:15.648Z,91.47
2018-02-06T23:59:43.060Z,91.36
